Time;durP1;ratioP1;P1;durP2;ratioP2;P2;SDS_P1;SDS_P2;PMS_P1;PMS_P2;Temp;Humidity;BMP_temperature;BMP_pressure;BME280_temperature;BME280_humidity;BME280_pressure;Samples;Min_cycle;Max_cycle;Signal;HPM_P1;HPM_P2
2022/10/21 00:00:17;;;;;;;16.45;8.90;;;13.10;99.90;;;;;;1986820;70;21104;-78
2022/10/21 00:02:44;;;;;;;21.27;9.73;;;13.10;99.90;;;;;;2000134;70;21125;-78
2022/10/21 00:05:12;;;;;;;19.87;8.15;;;13.10;99.90;;;;;;2003538;70;21047;-78
2022/10/21 00:07:39;;;;;;;20.25;8.88;;;13.20;99.90;;;;;;1999316;70;21385;-78
2022/10/21 00:12:48;;;;;;;17.15;8.95;;;13.20;99.90;;;;;;2054097;70;27872;-79
2022/10/21 00:15:15;;;;;;;17.62;8.43;;;13.20;99.90;;;;;;2007344;70;21127;-79
2022/10/21 00:17:43;;;;;;;17.20;8.85;;;13.10;99.90;;;;;;2009669;70;21035;-79
2022/10/21 00:20:10;;;;;;;19.60;8.00;;;13.10;99.90;;;;;;2021696;70;21075;-79
2022/10/21 00:22:38;;;;;;;18.75;7.67;;;13.10;99.90;;;;;;2012352;70;21035;-79
2022/10/21 00:25:05;;;;;;;15.58;8.53;;;13.00;99.90;;;;;;2015041;70;21058;-79
2022/10/21 00:27:33;;;;;;;20.55;7.75;;;13.00;99.90;;;;;;2013380;70;21477;-79
2022/10/21 00:30:00;;;;;;;13.55;8.35;;;12.90;99.90;;;;;;2009711;70;21105;-79
2022/10/21 00:32:27;;;;;;;12.93;7.50;;;12.90;99.90;;;;;;2022955;71;21356;-79
2022/10/21 00:34:55;;;;;;;16.35;8.25;;;12.80;99.90;;;;;;2011589;70;21040;-79
2022/10/21 00:37:22;;;;;;;14.10;7.85;;;12.80;99.90;;;;;;2007873;70;21438;-79
2022/10/21 00:39:50;;;;;;;18.87;9.20;;;12.90;99.90;;;;;;2009500;71;21007;-79
2022/10/21 00:42:20;;;;;;;16.25;8.43;;;13.00;99.90;;;;;;2010287;71;21011;-79
2022/10/21 00:45:08;;;;;;;17.50;8.43;;;13.00;99.90;;;;;;2007176;70;21046;-79
2022/10/21 00:47:57;;;;;;;23.95;8.83;;;12.90;99.90;;;;;;2018163;70;21015;-78
2022/10/21 00:50:31;;;;;;;17.98;8.93;;;12.90;99.90;;;;;;2008126;70;21094;-79
2022/10/21 00:52:58;;;;;;;23.50;8.78;;;12.90;99.90;;;;;;2006836;70;21047;-79
2022/10/21 00:55:26;;;;;;;18.37;9.05;;;12.90;99.90;;;;;;2006403;70;21044;-79
2022/10/21 00:57:53;;;;;;;16.77;8.90;;;12.90;99.90;;;;;;2016637;70;21096;-79
2022/10/21 01:00:21;;;;;;;16.97;9.08;;;12.90;99.90;;;;;;1998193;70;21177;-79
2022/10/21 01:02:48;;;;;;;15.25;8.58;;;12.90;99.90;;;;;;2021159;71;20984;-79
2022/10/21 01:05:15;;;;;;;17.37;8.60;;;13.00;99.90;;;;;;2018134;71;21175;-79
2022/10/21 01:07:43;;;;;;;21.37;8.98;;;12.90;99.90;;;;;;2010230;70;21040;-79
2022/10/21 01:10:10;;;;;;;15.48;8.45;;;12.80;99.90;;;;;;1980902;71;21031;-79
2022/10/21 01:13:03;;;;;;;21.48;8.70;;;12.90;99.90;;;;;;2010295;70;21008;-79
2022/10/21 01:15:40;;;;;;;21.60;9.45;;;12.90;99.90;;;;;;2020201;71;21047;-78
2022/10/21 01:18:33;;;;;;;14.75;8.60;;;12.90;99.90;;;;;;2006441;70;21137;-79
2022/10/21 01:21:20;;;;;;;19.10;8.45;;;12.90;99.90;;;;;;2009894;70;21482;-79
2022/10/21 01:24:10;;;;;;;17.40;9.20;;;12.80;99.90;;;;;;2009473;71;20992;-79
2022/10/21 01:26:53;;;;;;;18.02;8.95;;;12.80;99.90;;;;;;2001905;70;21166;-80
2022/10/21 01:29:44;;;;;;;18.23;9.43;;;12.90;99.90;;;;;;2000218;70;21007;-79
2022/10/21 01:32:34;;;;;;;20.72;8.43;;;12.80;99.90;;;;;;2019537;71;21416;-80
2022/10/21 01:35:08;;;;;;;22.73;9.23;;;12.70;99.90;;;;;;2013034;71;21058;-80
2022/10/21 01:37:44;;;;;;;22.77;9.20;;;12.80;99.90;;;;;;2006902;70;21094;-79
2022/10/21 01:40:23;;;;;;;15.65;8.15;;;12.80;99.90;;;;;;2013460;71;21404;-80
2022/10/21 01:42:56;;;;;;;15.93;8.28;;;12.80;99.90;;;;;;2006903;70;21404;-80
2022/10/21 01:45:39;;;;;;;13.48;7.30;;;12.80;99.90;;;;;;2011415;70;21116;-79
2022/10/21 01:48:12;;;;;;;17.27;7.90;;;12.70;99.90;;;;;;1997441;70;21178;-79
2022/10/21 01:50:46;;;;;;;15.38;7.87;;;12.70;99.90;;;;;;2009108;70;21044;-79
2022/10/21 01:53:13;;;;;;;16.30;8.10;;;12.70;99.90;;;;;;2011905;70;21120;-79
2022/10/21 01:55:41;;;;;;;19.35;8.30;;;12.80;99.90;;;;;;2007933;70;21254;-79
2022/10/21 01:58:14;;;;;;;20.10;7.53;;;12.90;99.90;;;;;;2006090;70;21055;-79
2022/10/21 02:00:41;;;;;;;14.78;6.78;;;12.90;99.90;;;;;;2005786;70;21202;-79
2022/10/21 02:03:10;;;;;;;25.90;7.37;;;12.90;99.90;;;;;;2001855;70;21081;-79
2022/10/21 02:05:37;;;;;;;13.65;6.72;;;13.00;99.90;;;;;;2017160;71;21033;-80
2022/10/21 02:08:04;;;;;;;18.70;7.40;;;12.90;99.90;;;;;;2006294;70;21012;-79
2022/10/21 02:10:34;;;;;;;16.15;8.15;;;13.10;99.90;;;;;;2014660;70;21485;-79
2022/10/21 02:13:03;;;;;;;17.85;8.03;;;13.20;99.90;;;;;;2011025;70;21050;-79
2022/10/21 02:15:30;;;;;;;14.50;7.97;;;13.10;99.90;;;;;;1976346;71;21019;-79
2022/10/21 02:18:06;;;;;;;14.28;8.80;;;13.20;99.90;;;;;;2011307;70;21420;-80
2022/10/21 02:20:54;;;;;;;19.00;8.83;;;13.30;99.90;;;;;;2002362;70;21043;-81
2022/10/21 02:23:25;;;;;;;16.93;9.60;;;13.20;99.90;;;;;;2045621;69;21047;-84
2022/10/21 02:25:52;;;;;;;23.10;9.05;;;13.30;99.90;;;;;;2041115;69;21037;-83
2022/10/21 02:28:19;;;;;;;21.35;10.38;;;13.20;99.90;;;;;;2045478;69;21435;-81
2022/10/21 02:30:59;;;;;;;19.87;9.30;;;13.20;99.90;;;;;;2044014;69;21043;-82
2022/10/21 02:33:38;;;;;;;17.17;9.80;;;13.20;99.90;;;;;;2043999;69;21063;-81
2022/10/21 02:36:17;;;;;;;17.73;9.03;;;13.30;99.90;;;;;;2010198;69;21504;-80
2022/10/21 02:38:49;;;;;;;18.90;9.98;;;13.30;99.90;;;;;;2049047;69;21093;-80
2022/10/21 02:41:21;;;;;;;15.80;8.85;;;13.20;99.90;;;;;;2044635;70;21108;-80
2022/10/21 02:43:52;;;;;;;18.95;9.53;;;13.20;99.90;;;;;;2047033;69;21128;-80
2022/10/21 02:46:21;;;;;;;19.20;9.50;;;13.30;99.90;;;;;;2048796;70;20972;-80
2022/10/21 02:48:48;;;;;;;15.75;8.98;;;13.20;99.90;;;;;;2044613;69;21044;-80
2022/10/21 02:51:17;;;;;;;13.70;8.58;;;13.20;99.90;;;;;;2041006;69;21163;-80
2022/10/21 02:53:44;;;;;;;16.23;8.70;;;13.20;99.90;;;;;;2052279;69;21541;-80
2022/10/21 02:56:11;;;;;;;20.45;9.60;;;13.20;99.90;;;;;;2044667;69;21009;-80
2022/10/21 02:58:39;;;;;;;17.37;8.40;;;13.20;99.90;;;;;;2044173;69;21563;-81
2022/10/21 03:01:06;;;;;;;16.27;8.75;;;13.10;99.90;;;;;;2044264;70;21050;-81
2022/10/21 03:03:35;;;;;;;18.40;8.15;;;13.10;99.90;;;;;;2044697;69;21433;-80
2022/10/21 03:06:02;;;;;;;17.80;8.85;;;13.20;99.90;;;;;;2044974;69;21029;-81
2022/10/21 03:08:30;;;;;;;20.17;9.35;;;13.10;99.90;;;;;;2049150;69;21165;-82
2022/10/21 03:10:57;;;;;;;19.60;9.33;;;13.10;99.90;;;;;;2046071;69;21047;-79
2022/10/21 03:13:24;;;;;;;18.80;8.83;;;13.00;99.90;;;;;;2051447;69;21050;-81
2022/10/21 03:15:52;;;;;;;18.90;8.33;;;13.00;99.90;;;;;;2044162;70;21007;-81
2022/10/21 03:18:19;;;;;;;23.38;8.70;;;13.10;99.90;;;;;;2044352;69;21048;-80
2022/10/21 03:20:50;;;;;;;19.50;9.25;;;13.10;99.90;;;;;;2043277;69;21068;-81
2022/10/21 03:23:18;;;;;;;19.70;9.13;;;13.00;99.90;;;;;;2044288;69;21047;-81
2022/10/21 03:25:46;;;;;;;26.60;8.75;;;13.00;99.90;;;;;;2044726;69;21015;-81
2022/10/21 03:28:13;;;;;;;16.27;8.93;;;13.00;99.90;;;;;;2043691;69;21032;-81
2022/10/21 03:30:40;;;;;;;16.48;9.33;;;13.00;99.90;;;;;;2045976;69;21439;-81
2022/10/21 03:33:08;;;;;;;15.15;8.98;;;12.90;99.90;;;;;;2044198;70;21003;-80
2022/10/21 03:35:35;;;;;;;19.00;10.25;;;13.00;99.90;;;;;;2043259;69;21426;-80
2022/10/21 03:38:02;;;;;;;16.73;9.98;;;13.00;99.90;;;;;;2043993;69;21179;-79
2022/10/21 03:40:29;;;;;;;20.30;10.20;;;12.90;99.90;;;;;;2044525;69;21097;-80
2022/10/21 03:42:57;;;;;;;33.48;11.28;;;13.00;99.90;;;;;;2043425;69;21045;-80
2022/10/21 03:45:25;;;;;;;20.75;10.60;;;13.00;99.90;;;;;;2045234;70;21425;-81
2022/10/21 03:47:52;;;;;;;20.72;11.05;;;13.00;99.90;;;;;;2044114;69;21459;-79
2022/10/21 03:50:20;;;;;;;24.60;11.68;;;13.00;99.90;;;;;;2045215;69;21024;-80
2022/10/21 03:52:47;;;;;;;18.92;10.98;;;13.00;99.90;;;;;;2042042;69;21127;-80
2022/10/21 03:55:16;;;;;;;24.67;11.05;;;13.00;99.90;;;;;;2042276;69;21024;-79
2022/10/21 03:57:43;;;;;;;21.95;11.28;;;13.00;99.90;;;;;;2044467;69;21103;-79
2022/10/21 04:00:11;;;;;;;32.30;11.93;;;13.00;99.90;;;;;;2053663;69;21231;-79
2022/10/21 04:02:38;;;;;;;21.52;11.35;;;13.10;99.90;;;;;;2047076;69;21031;-80
2022/10/21 04:05:06;;;;;;;22.00;11.68;;;13.10;99.90;;;;;;2046969;69;21083;-80
2022/10/21 04:07:34;;;;;;;33.55;12.85;;;13.20;99.90;;;;;;2044023;70;21081;-79
2022/10/21 04:10:01;;;;;;;28.12;11.75;;;13.20;99.90;;;;;;2043160;69;21043;-79
2022/10/21 04:12:28;;;;;;;24.37;12.07;;;13.20;99.90;;;;;;2044449;69;21043;-80
2022/10/21 04:14:56;;;;;;;20.90;10.23;;;13.20;99.90;;;;;;2052414;70;21031;-79
2022/10/21 04:17:23;;;;;;;28.17;11.60;;;13.30;99.90;;;;;;2044304;69;21099;-80
2022/10/21 04:19:50;;;;;;;19.15;11.12;;;13.20;99.90;;;;;;2044906;70;21020;-80
2022/10/21 04:22:18;;;;;;;20.75;10.68;;;13.20;99.90;;;;;;2046300;69;21043;-80
2022/10/21 04:24:45;;;;;;;19.87;11.12;;;13.30;99.90;;;;;;2042334;69;21111;-79
2022/10/21 04:27:12;;;;;;;19.32;10.40;;;13.30;99.90;;;;;;2052022;70;20999;-79
2022/10/21 04:29:39;;;;;;;22.95;11.83;;;13.30;99.90;;;;;;2044046;69;21133;-81
2022/10/21 04:32:07;;;;;;;20.00;10.55;;;13.40;99.90;;;;;;2042867;69;21077;-80
2022/10/21 04:34:34;;;;;;;20.50;10.60;;;13.40;99.90;;;;;;2044277;70;21011;-80
2022/10/21 04:37:02;;;;;;;19.32;10.90;;;13.40;99.90;;;;;;2044173;69;21419;-81
2022/10/21 04:39:29;;;;;;;20.92;10.95;;;13.30;99.90;;;;;;2049464;69;21035;-81
2022/10/21 04:41:56;;;;;;;26.02;11.93;;;13.40;99.90;;;;;;2043154;69;21160;-80
2022/10/21 04:44:23;;;;;;;24.85;10.90;;;13.30;99.90;;;;;;2048258;69;21031;-80
2022/10/21 04:46:51;;;;;;;23.85;10.88;;;13.30;99.90;;;;;;2045292;69;21004;-81
2022/10/21 04:49:18;;;;;;;26.30;11.35;;;13.40;99.90;;;;;;2044211;69;21044;-80
2022/10/21 04:51:45;;;;;;;25.72;10.68;;;13.40;99.90;;;;;;2042331;69;21012;-79
2022/10/21 04:54:13;;;;;;;23.22;11.38;;;13.40;99.90;;;;;;2010650;70;21033;-79
2022/10/21 04:56:41;;;;;;;18.55;11.50;;;13.50;99.90;;;;;;2043990;69;21010;-80
2022/10/21 04:59:08;;;;;;;23.85;10.68;;;13.50;99.90;;;;;;2044097;70;21348;-79
2022/10/21 05:01:35;;;;;;;26.68;10.82;;;13.50;99.90;;;;;;2044315;70;21007;-80
2022/10/21 05:04:02;;;;;;;21.50;10.98;;;13.50;99.90;;;;;;2043627;69;21375;-79
2022/10/21 05:06:30;;;;;;;20.20;11.20;;;13.50;99.90;;;;;;2045540;69;21174;-79
2022/10/21 05:08:57;;;;;;;19.02;10.03;;;13.40;99.90;;;;;;2044524;69;21420;-79
2022/10/21 05:11:24;;;;;;;17.30;10.43;;;13.40;99.90;;;;;;2049081;69;21108;-80
2022/10/21 05:13:53;;;;;;;16.70;9.43;;;13.40;99.90;;;;;;2051531;69;21372;-80
2022/10/21 05:16:20;;;;;;;18.92;9.83;;;13.40;99.90;;;;;;2044226;70;20991;-83
2022/10/21 05:18:48;;;;;;;18.85;8.93;;;13.50;99.90;;;;;;2043620;69;21003;-82
2022/10/21 05:21:15;;;;;;;17.95;9.50;;;13.50;99.90;;;;;;2043759;69;21030;-82
2022/10/21 05:23:42;;;;;;;21.25;9.20;;;13.50;99.90;;;;;;2049033;70;21081;-81
2022/10/21 05:26:11;;;;;;;16.25;9.20;;;13.60;99.90;;;;;;2044592;69;21020;-80
2022/10/21 05:28:38;;;;;;;22.82;10.20;;;13.50;99.90;;;;;;2045995;69;21438;-80
2022/10/21 05:31:07;;;;;;;16.50;8.48;;;13.40;99.90;;;;;;2041417;69;21116;-81
2022/10/21 05:33:34;;;;;;;17.07;9.43;;;13.50;99.90;;;;;;2046549;69;21051;-76
2022/10/21 05:36:06;;;;;;;15.83;8.45;;;13.60;99.90;;;;;;2045586;69;21187;-76
2022/10/21 05:38:32;;;;;;;15.03;8.70;;;13.60;99.90;;;;;;2044970;69;21067;-77
2022/10/21 05:41:00;;;;;;;15.25;8.03;;;13.50;99.90;;;;;;2046547;69;21035;-76
2022/10/21 05:43:28;;;;;;;19.52;7.80;;;13.50;99.90;;;;;;2049259;69;21044;-75
2022/10/21 05:45:55;;;;;;;20.23;8.65;;;13.50;99.90;;;;;;2044197;69;21035;-76
2022/10/21 05:48:22;;;;;;;17.27;8.48;;;13.60;99.90;;;;;;2046897;69;21439;-78
2022/10/21 05:50:52;;;;;;;14.38;8.35;;;13.60;99.90;;;;;;2047740;69;21120;-73
2022/10/21 05:53:20;;;;;;;18.27;9.00;;;13.50;99.90;;;;;;2052671;69;21058;-78
2022/10/21 05:55:56;;;;;;;18.80;8.48;;;13.40;99.90;;;;;;2046422;69;21024;-79
2022/10/21 05:58:24;;;;;;;20.75;8.80;;;13.40;99.90;;;;;;2045110;69;21174;-77
2022/10/21 06:00:55;;;;;;;21.17;9.28;;;13.30;99.90;;;;;;2042121;69;21033;-77
2022/10/21 06:03:28;;;;;;;22.70;9.10;;;13.30;99.90;;;;;;2045927;69;21021;-80
2022/10/21 06:05:53;;;;;;;18.15;9.58;;;13.40;99.90;;;;;;2045022;69;21142;-75
2022/10/21 06:08:21;;;;;;;22.98;9.68;;;13.40;99.90;;;;;;2043904;69;21097;-79
2022/10/21 06:10:48;;;;;;;22.10;8.90;;;13.40;99.90;;;;;;2046950;69;21443;-79
2022/10/21 06:13:15;;;;;;;18.65;8.45;;;13.50;99.90;;;;;;2045691;69;21032;-77
2022/10/21 06:15:43;;;;;;;13.08;8.48;;;13.50;99.90;;;;;;2046787;69;21397;-78
2022/10/21 06:18:10;;;;;;;14.33;8.65;;;13.50;99.90;;;;;;2043145;69;21147;-78
2022/10/21 06:20:37;;;;;;;15.65;8.08;;;13.60;99.90;;;;;;2045946;69;21160;-78
2022/10/21 06:23:05;;;;;;;14.07;7.60;;;13.70;99.90;;;;;;2043315;69;21012;-76
2022/10/21 06:25:32;;;;;;;13.43;7.53;;;13.70;99.90;;;;;;2043446;69;21007;-78
2022/10/21 06:27:59;;;;;;;14.83;7.80;;;13.70;99.90;;;;;;2043698;70;21440;-78
2022/10/21 06:30:26;;;;;;;16.93;7.53;;;13.70;99.90;;;;;;2044697;69;21063;-77
2022/10/21 06:32:54;;;;;;;17.62;7.87;;;13.90;99.90;;;;;;2039627;69;21437;-77
2022/10/21 06:35:21;;;;;;;13.95;7.62;;;13.80;99.90;;;;;;2043905;69;21194;-76
2022/10/21 06:37:50;;;;;;;16.80;7.87;;;13.90;99.90;;;;;;2043245;69;21122;-77
2022/10/21 06:40:17;;;;;;;13.03;7.83;;;13.80;99.90;;;;;;2044235;69;21158;-77
2022/10/21 06:42:45;;;;;;;16.12;7.50;;;13.90;99.90;;;;;;2044630;69;21559;-78
2022/10/21 06:45:12;;;;;;;20.37;7.67;;;13.80;99.90;;;;;;2046289;70;21085;-77
2022/10/21 06:47:39;;;;;;;21.93;7.62;;;13.80;99.90;;;;;;2044016;70;21004;-78
2022/10/21 06:50:07;;;;;;;17.05;8.95;;;13.80;99.90;;;;;;2045473;69;21078;-78
2022/10/21 06:52:34;;;;;;;18.75;7.53;;;13.80;99.90;;;;;;2052132;69;21059;-78
2022/10/21 06:55:02;;;;;;;14.33;7.47;;;13.90;99.90;;;;;;2040543;69;21019;-80
2022/10/21 06:57:29;;;;;;;20.00;7.28;;;13.90;99.90;;;;;;2046260;69;21112;-79
2022/10/21 06:59:56;;;;;;;20.77;8.13;;;13.90;99.90;;;;;;2044122;69;21034;-81
2022/10/21 07:02:24;;;;;;;22.93;8.23;;;13.80;99.90;;;;;;2043534;69;21071;-80
2022/10/21 07:04:51;;;;;;;19.30;8.35;;;13.70;99.90;;;;;;2046018;70;21467;-78
2022/10/21 07:07:19;;;;;;;16.52;8.18;;;13.70;99.90;;;;;;2046500;69;21435;-79
2022/10/21 07:09:46;;;;;;;17.25;7.40;;;13.70;99.90;;;;;;2046128;70;21431;-79
2022/10/21 07:12:14;;;;;;;18.20;7.87;;;13.80;99.90;;;;;;2042931;69;21039;-79
2022/10/21 07:14:41;;;;;;;18.62;9.05;;;13.90;99.90;;;;;;2047478;69;21032;-79
2022/10/21 07:17:08;;;;;;;21.57;7.95;;;13.80;99.90;;;;;;2043948;69;21045;-81
2022/10/21 07:19:36;;;;;;;16.67;7.87;;;13.90;99.90;;;;;;2045408;69;21233;-80
2022/10/21 07:22:03;;;;;;;19.82;8.23;;;13.90;99.90;;;;;;2046057;69;21448;-80
2022/10/21 07:24:30;;;;;;;15.32;8.55;;;13.80;99.90;;;;;;2042325;69;21010;-80
2022/10/21 07:26:58;;;;;;;16.10;8.20;;;13.80;99.90;;;;;;2049388;69;21606;-80
2022/10/21 07:29:25;;;;;;;15.10;7.90;;;13.90;99.90;;;;;;2045330;69;21041;-79
2022/10/21 07:31:52;;;;;;;19.17;8.23;;;13.90;99.90;;;;;;2040083;69;21020;-80
2022/10/21 07:34:20;;;;;;;14.73;8.30;;;14.10;99.90;;;;;;2043963;69;21140;-80
2022/10/21 07:36:48;;;;;;;22.58;8.18;;;14.10;99.90;;;;;;2043606;69;21041;-80
2022/10/21 07:39:16;;;;;;;21.70;8.40;;;14.10;99.90;;;;;;2044261;69;21456;-79
2022/10/21 07:41:46;;;;;;;19.20;8.35;;;14.10;99.90;;;;;;2049225;69;21042;-79
2022/10/21 07:44:14;;;;;;;21.35;8.10;;;14.00;99.90;;;;;;2041305;69;21508;-80
2022/10/21 07:46:42;;;;;;;19.07;8.00;;;14.10;99.90;;;;;;2043907;69;21036;-80
2022/10/21 07:49:09;;;;;;;22.02;8.05;;;14.20;99.90;;;;;;2042760;69;21120;-79
2022/10/21 07:51:36;;;;;;;14.63;7.90;;;14.20;99.90;;;;;;2045373;69;21039;-80
2022/10/21 07:54:04;;;;;;;18.32;7.80;;;14.10;99.90;;;;;;2051484;69;21117;-79
2022/10/21 07:56:37;;;;;;;16.73;7.80;;;14.10;99.90;;;;;;2049959;70;21061;-79
2022/10/21 07:59:04;;;;;;;16.73;7.65;;;14.10;99.90;;;;;;2018550;70;21392;-80
2022/10/21 08:01:32;;;;;;;11.60;7.28;;;14.20;99.90;;;;;;2053733;69;21028;-80
2022/10/21 08:04:00;;;;;;;17.60;7.90;;;14.40;99.90;;;;;;2042611;69;21042;-80
2022/10/21 08:06:28;;;;;;;14.90;6.78;;;14.40;99.90;;;;;;2047176;69;21167;-81
2022/10/21 08:08:59;;;;;;;22.32;7.42;;;14.40;99.90;;;;;;2044764;69;21118;-80
2022/10/21 08:11:26;;;;;;;17.02;6.67;;;14.40;99.90;;;;;;2044885;69;21146;-80
2022/10/21 08:13:54;;;;;;;14.28;7.22;;;14.40;99.90;;;;;;2047039;70;21019;-80
2022/10/21 08:16:21;;;;;;;15.68;7.50;;;14.50;99.90;;;;;;2043339;69;21540;-80
2022/10/21 08:18:49;;;;;;;15.72;5.40;;;14.60;99.90;;;;;;2046755;69;21057;-79
2022/10/21 08:21:16;;;;;;;14.10;5.90;;;14.60;99.90;;;;;;2044253;69;21181;-79
2022/10/21 08:23:43;;;;;;;13.18;4.97;;;14.60;99.90;;;;;;2043177;69;21048;-79
2022/10/21 08:26:13;;;;;;;10.58;5.15;;;14.70;99.90;;;;;;2042877;69;21032;-79
2022/10/21 08:28:40;;;;;;;12.37;5.28;;;14.80;99.90;;;;;;2046187;69;21051;-81
2022/10/21 08:31:10;;;;;;;12.65;5.45;;;14.80;99.90;;;;;;2045374;69;21534;-78
2022/10/21 08:33:37;;;;;;;13.03;5.90;;;14.80;99.90;;;;;;2045810;69;21575;-81
2022/10/21 08:36:13;;;;;;;12.07;5.35;;;14.90;99.90;;;;;;2014618;70;21051;-79
2022/10/21 08:38:40;;;;;;;20.82;6.10;;;15.00;99.90;;;;;;2042103;69;21043;-81
2022/10/21 08:41:27;;;;;;;15.05;4.78;;;15.20;99.90;;;;;;2042408;69;21180;-78
2022/10/21 08:44:24;;;;;;;17.52;5.85;;;15.20;99.90;;;;;;2044344;69;21033;-79
2022/10/21 08:47:00;;;;;;;13.53;5.08;;;15.20;99.90;;;;;;2043706;69;21446;-80
2022/10/21 08:49:31;;;;;;;13.62;5.62;;;15.30;99.90;;;;;;2006870;69;21082;-80
2022/10/21 08:52:04;;;;;;;11.38;5.00;;;15.20;99.90;;;;;;2043480;69;21037;-80
2022/10/21 08:54:40;;;;;;;10.05;5.17;;;15.20;99.90;;;;;;2047892;69;21043;-81
2022/10/21 08:57:10;;;;;;;12.18;5.12;;;15.20;99.90;;;;;;2052615;69;21033;-81
2022/10/21 08:59:40;;;;;;;13.20;5.40;;;15.30;99.90;;;;;;2052691;69;21514;-80
2022/10/21 09:02:19;;;;;;;10.82;5.55;;;15.30;99.90;;;;;;2044616;69;21187;-79
2022/10/21 09:04:54;;;;;;;;;;;15.20;99.90;;;;;;2047996;69;21045;-80
2022/10/21 09:07:27;;;;;;;12.60;6.28;;;15.00;99.90;;;;;;2055375;70;20090;-81
2022/10/21 09:10:01;;;;;;;12.73;5.75;;;15.00;99.90;;;;;;2045904;69;21109;-81
2022/10/21 09:12:46;;;;;;;14.75;5.90;;;15.10;99.90;;;;;;2045187;69;21478;-80
2022/10/21 09:15:25;;;;;;;12.65;6.05;;;15.20;99.90;;;;;;2037526;70;21109;-80
2022/10/21 09:18:27;;;;;;;10.43;5.35;;;15.30;99.90;;;;;;2044333;70;21395;-81
2022/10/21 09:21:03;;;;;;;13.58;5.72;;;15.40;99.90;;;;;;2043197;69;21039;-82
2022/10/21 09:23:39;;;;;;;11.08;5.87;;;15.50;99.90;;;;;;2043050;69;21159;-79
2022/10/21 09:26:18;;;;;;;12.43;6.35;;;15.50;99.90;;;;;;2027850;69;21097;-80
2022/10/21 09:28:46;;;;;;;17.23;6.72;;;15.50;99.90;;;;;;2045536;69;21206;-82
2022/10/21 09:31:16;;;;;;;11.70;6.00;;;15.60;99.90;;;;;;2048465;69;21047;-83
2022/10/21 09:33:58;;;;;;;10.65;5.72;;;15.60;99.90;;;;;;2048181;69;21052;-80
2022/10/21 09:36:37;;;;;;;11.90;5.78;;;15.60;99.90;;;;;;2043728;69;21107;-80
2022/10/21 09:39:09;;;;;;;9.13;5.10;;;15.70;99.90;;;;;;2046536;69;21189;-78
2022/10/21 09:41:44;;;;;;;11.93;5.42;;;15.60;99.90;;;;;;2043184;69;21152;-76
2022/10/21 09:44:14;;;;;;;19.77;6.20;;;15.80;99.90;;;;;;2043959;69;21117;-80
2022/10/21 09:46:42;;;;;;;15.63;5.62;;;16.00;99.90;;;;;;2042622;69;21044;-80
2022/10/21 09:49:13;;;;;;;12.37;6.30;;;16.30;99.90;;;;;;2043361;69;21011;-77
2022/10/21 09:51:41;;;;;;;13.62;5.60;;;16.40;99.90;;;;;;2042927;69;21450;-79
2022/10/21 09:54:11;;;;;;;11.93;5.30;;;16.50;99.90;;;;;;2041905;69;21112;-79
2022/10/21 09:56:57;;;;;;;10.80;5.42;;;16.60;99.90;;;;;;2041661;69;21083;-79
2022/10/21 09:59:24;;;;;;;15.72;4.35;;;16.70;99.90;;;;;;2043519;70;21158;-76
2022/10/21 10:01:52;;;;;;;8.28;3.98;;;16.80;99.90;;;;;;2043146;69;21105;-81
2022/10/21 10:04:32;;;;;;;12.40;3.35;;;16.90;99.90;;;;;;2045344;69;21031;-80
2022/10/21 10:07:02;;;;;;;;;;;17.10;99.90;;;;;;2055432;69;21047;-78
2022/10/21 10:09:35;;;;;;;8.48;3.65;;;17.30;99.90;;;;;;2049776;69;20301;-79
2022/10/21 10:12:14;;;;;;;5.92;3.83;;;17.40;99.90;;;;;;2045094;69;21088;-74
2022/10/21 10:14:42;;;;;;;6.50;2.40;;;17.40;99.90;;;;;;2030547;70;21341;-74
2022/10/21 10:17:25;;;;;;;9.08;3.00;;;17.40;99.90;;;;;;2043945;69;21109;-76
2022/10/21 10:20:06;;;;;;;5.97;2.80;;;17.40;99.90;;;;;;2050584;69;21184;-77
2022/10/21 10:22:36;;;;;;;7.30;3.30;;;17.20;99.90;;;;;;2041779;69;21120;-79
2022/10/21 10:25:24;;;;;;;8.08;2.98;;;17.20;99.90;;;;;;2044100;70;21020;-79
2022/10/21 10:27:58;;;;;;;4.47;2.70;;;17.20;99.90;;;;;;2042051;70;21130;-75
2022/10/21 10:30:27;;;;;;;6.33;3.42;;;17.20;99.90;;;;;;2043207;69;21080;-79
2022/10/21 10:32:55;;;;;;;9.10;3.62;;;17.20;99.90;;;;;;2027687;69;21031;-78
2022/10/21 10:35:30;;;;;;;8.10;3.17;;;17.20;99.90;;;;;;2045233;69;21105;-78
2022/10/21 10:37:58;;;;;;;6.28;2.60;;;17.20;99.90;;;;;;2043169;69;21120;-78
2022/10/21 10:40:30;;;;;;;6.03;3.42;;;17.20;99.90;;;;;;2044942;69;21109;-77
2022/10/21 10:43:03;;;;;;;9.33;2.90;;;17.20;99.90;;;;;;2044479;69;21196;-77
2022/10/21 10:45:30;;;;;;;8.18;3.80;;;17.00;99.90;;;;;;2044035;69;21043;-79
2022/10/21 10:47:59;;;;;;;14.23;3.37;;;16.70;99.90;;;;;;2041758;69;21010;-78
2022/10/21 10:50:45;;;;;;;13.35;4.33;;;16.80;99.90;;;;;;2045685;70;21067;-77
2022/10/21 10:53:30;;;;;;;11.85;3.50;;;16.80;99.90;;;;;;2043984;70;21112;-79
2022/10/21 10:56:04;;;;;;;9.15;3.50;;;16.70;99.90;;;;;;2045869;69;21019;-78
2022/10/21 10:58:33;;;;;;;10.38;3.27;;;17.00;99.90;;;;;;2043258;69;21153;-78
2022/10/21 11:01:02;;;;;;;6.72;2.67;;;17.10;99.90;;;;;;2044259;69;21565;-77
2022/10/21 11:03:43;;;;;;;4.65;2.30;;;17.20;99.90;;;;;;2043969;70;21132;-78
2022/10/21 11:06:18;;;;;;;6.42;2.25;;;17.30;99.90;;;;;;2048259;69;21128;-78
2022/10/21 11:08:50;;;;;;;6.72;1.72;;;17.40;99.90;;;;;;2051759;69;21493;-78
2022/10/21 11:11:32;;;;;;;7.78;2.12;;;17.30;99.90;;;;;;2048357;69;21052;-77
2022/10/21 11:13:59;;;;;;;4.22;1.80;;;17.50;99.90;;;;;;2044717;69;21016;-78
2022/10/21 11:16:42;;;;;;;6.85;1.62;;;17.50;99.90;;;;;;2044653;69;21124;-78
2022/10/21 11:19:15;;;;;;;3.60;1.52;;;17.60;99.90;;;;;;1973127;69;21160;-78
2022/10/21 11:21:53;;;;;;;4.10;2.12;;;17.60;99.90;;;;;;2043073;69;21063;-78
2022/10/21 11:24:40;;;;;;;2.58;1.22;;;17.90;99.90;;;;;;2043961;69;21128;-78
2022/10/21 11:27:14;;;;;;;6.30;2.12;;;17.90;99.90;;;;;;2043898;69;21474;-78
2022/10/21 11:29:50;;;;;;;9.20;1.98;;;18.10;99.90;;;;;;2043802;70;21046;-78
2022/10/21 11:32:21;;;;;;;8.78;1.85;;;18.20;99.90;;;;;;2040486;69;21117;-75
2022/10/21 11:35:16;;;;;;;6.25;1.40;;;18.20;99.90;;;;;;2043085;69;21521;-77
2022/10/21 11:38:06;;;;;;;4.15;1.22;;;18.10;99.90;;;;;;2043950;69;21486;-77
2022/10/21 11:40:41;;;;;;;5.10;0.95;;;18.00;99.90;;;;;;2042468;69;21063;-77
2022/10/21 11:43:14;;;;;;;3.00;1.20;;;18.00;99.90;;;;;;2046392;70;20995;-76
2022/10/21 11:45:59;;;;;;;5.12;1.22;;;18.10;99.90;;;;;;2046822;69;21502;-78
2022/10/21 11:48:48;;;;;;;5.37;1.30;;;18.10;99.90;;;;;;2041288;69;21523;-76
2022/10/21 11:51:39;;;;;;;1.55;0.98;;;18.30;99.90;;;;;;2047394;69;21047;-77
2022/10/21 11:54:26;;;;;;;3.20;1.30;;;18.50;99.90;;;;;;2050849;70;21073;-78
2022/10/21 11:57:00;;;;;;;6.10;1.42;;;18.60;99.90;;;;;;2042976;69;21048;-77
2022/10/21 11:59:36;;;;;;;3.72;1.10;;;19.00;99.90;;;;;;2044144;69;21189;-77
2022/10/21 12:02:18;;;;;;;2.65;0.90;;;18.90;99.90;;;;;;2043351;69;21030;-78
2022/10/21 12:04:57;;;;;;;2.87;1.37;;;18.90;99.90;;;;;;2045953;69;21044;-78
2022/10/21 12:07:31;;;;;;;1.40;0.70;;;18.90;99.90;;;;;;2044560;69;21051;-76
2022/10/21 12:10:22;;;;;;;1.87;0.90;;;18.90;99.90;;;;;;2054036;70;21408;-74
2022/10/21 12:12:49;;;;;;;2.02;0.80;;;18.80;99.90;;;;;;1951161;72;21155;-75
2022/10/21 12:15:32;;;;;;;4.35;1.02;;;18.70;99.90;;;;;;2029244;70;21036;-76
2022/10/21 12:18:02;;;;;;;1.67;1.07;;;18.60;99.90;;;;;;2043943;69;21106;-75
2022/10/21 12:20:28;;;;;;;3.05;1.15;;;18.50;99.90;;;;;;2051313;69;21100;-76
2022/10/21 12:23:01;;;;;;;1.42;0.78;;;18.40;99.90;;;;;;2045967;70;21039;-77
2022/10/21 12:25:35;;;;;;;3.50;1.05;;;18.30;99.90;;;;;;2041974;69;21151;-77
2022/10/21 12:28:11;;;;;;;0.90;0.65;;;18.40;99.90;;;;;;2042078;69;21166;-77
2022/10/21 12:30:42;;;;;;;4.35;1.37;;;18.40;99.90;;;;;;2039213;69;21094;-77
2022/10/21 12:33:13;;;;;;;1.85;1.10;;;18.30;99.90;;;;;;2045499;69;21148;-77
2022/10/21 12:35:53;;;;;;;1.75;0.90;;;18.30;99.90;;;;;;2045329;69;21095;-77
2022/10/21 12:38:38;;;;;;;3.85;0.80;;;18.30;99.90;;;;;;2043998;70;21058;-79
2022/10/21 12:41:21;;;;;;;3.50;0.80;;;18.40;99.90;;;;;;2044535;69;21142;-80
2022/10/21 12:44:06;;;;;;;4.62;1.10;;;18.50;99.90;;;;;;2045319;69;21053;-79
2022/10/21 12:46:48;;;;;;;4.05;1.17;;;18.30;99.90;;;;;;2046681;70;21204;-79
2022/10/21 12:49:34;;;;;;;4.03;1.05;;;18.40;99.90;;;;;;2044843;69;21393;-79
2022/10/21 12:52:08;;;;;;;3.80;1.20;;;18.20;99.90;;;;;;2050327;70;21051;-79
2022/10/21 12:54:52;;;;;;;2.65;1.20;;;18.10;99.90;;;;;;2042219;69;21090;-78
2022/10/21 12:57:26;;;;;;;2.22;0.90;;;18.20;99.90;;;;;;2044113;69;21509;-78
2022/10/21 13:00:13;;;;;;;4.53;0.90;;;18.20;99.90;;;;;;2042091;69;21086;-78
2022/10/21 13:02:59;;;;;;;7.67;0.90;;;18.30;99.90;;;;;;2054256;69;21048;-78